Time;durP1;ratioP1;P1;durP2;ratioP2;P2;SDS_P1;SDS_P2;PMS_P1;PMS_P2;Temp;Humidity;BMP_temperature;BMP_pressure;BME280_temperature;BME280_humidity;BME280_pressure;Samples;Min_cycle;Max_cycle;Signal;HPM_P1;HPM_P2
2021/03/23 00:01:38;;;;;;;;;;;;;;;;;;5067114;28;795;-62
2021/03/23 00:04:04;;;;;;;;;;;;;;;;;;5068102;28;854;-62
2021/03/23 00:06:29;;;;;;;;;;;;;;;;;;5066841;28;842;-62
2021/03/23 00:08:59;;;;;;;;;;;;;;;;;;5065603;28;1300;-62
2021/03/23 00:11:32;;;;;;;;;;;;;;;;;;5067472;28;819;-62
2021/03/23 00:13:58;;;;;;;;;;;;;;;;;;5067014;28;914;-62
2021/03/23 00:16:25;;;;;;;;;;;;;;;;;;5066641;28;1893;-62
2021/03/23 00:18:51;;;;;;;;;;;;;;;;;;5066659;28;878;-62
2021/03/23 00:21:17;;;;;;;;;;;;;;;;;;5066894;28;838;-62
2021/03/23 00:23:42;;;;;;;;;;;;;;;;;;5048169;28;1546;-62
2021/03/23 00:26:08;;;;;;;;;;;;;;;;;;5046439;28;891;-63
2021/03/23 00:28:34;;;;;;;;;;;;;;;;;;5050303;28;1157;-62
2021/03/23 00:30:59;;;;;;;;;;;;;;;;;;5046669;28;795;-62
2021/03/23 00:33:25;;;;;;;;;;;;;;;;;;5046875;28;863;-62
2021/03/23 00:35:52;;;;;;;;;;;;;;;;;;5046551;28;2018;-62
2021/03/23 00:38:18;;;;;;;;;;;;;;;;;;5046716;28;851;-62
2021/03/23 00:40:43;;;;;;;;;;;;;;;;;;5046373;28;940;-62
2021/03/23 00:43:09;;;;;;;;;;;;;;;;;;5046654;28;918;-62
2021/03/23 00:45:37;;;;;;;;;;;;;;;;;;5048219;28;819;-62
2021/03/23 00:48:03;;;;;;;;;;;;;;;;;;5050870;28;906;-62
2021/03/23 00:50:28;;;;;;;;;;;;;;;;;;5050215;28;855;-62
2021/03/23 00:52:53;;;;;;;;;;;;;;;;;;5052520;28;1019;-62
2021/03/23 00:55:19;;;;;;;;;;;;;;;;;;5070443;28;1975;-62
2021/03/23 00:57:44;;;;;;;;;;;;;;;;;;5070296;28;902;-62
2021/03/23 01:00:11;;;;;;;;;;;;;;;;;;5069884;28;917;-62
2021/03/23 01:02:37;;;;;;;;;;;;;;;;;;5071087;28;843;-62
2021/03/23 01:05:04;;;;;;;;;;;;;;;;;;5070827;28;818;-62
2021/03/23 01:07:29;;;;;;;;;;;;;;;;;;5070473;28;816;-62
2021/03/23 01:09:54;;;;;;;;;;;;;;;;;;5070169;28;858;-62
2021/03/23 01:12:20;;;;;;;;;;;;;;;;;;5069836;28;973;-62
2021/03/23 01:14:48;;;;;;;;;;;;;;;;;;5069640;28;1963;-62
2021/03/23 01:17:13;;;;;;;;;;;;;;;;;;5070015;28;882;-62
2021/03/23 01:19:39;;;;;;;;;;;;;;;;;;5070033;28;819;-63
2021/03/23 01:22:04;;;;;;;;;;;;;;;;;;5070125;28;835;-62
2021/03/23 01:24:30;;;;;;;;;;;;;;;;;;5069017;28;851;-62
2021/03/23 01:26:55;;;;;;;;;;;;;;;;;;5070121;28;965;-62
2021/03/23 01:29:21;;;;;;;;;;;;;;;;;;5069550;28;710;-61
2021/03/23 01:31:46;;;;;;;;;;;;;;;;;;5068461;28;812;-61
2021/03/23 01:34:11;;;;;;;;;;;;;;;;;;5070340;28;851;-62
2021/03/23 01:36:37;;;;;;;;;;;;;;;;;;5069792;28;1898;-61
2021/03/23 01:39:03;;;;;;;;;;;;;;;;;;5070205;28;823;-62
2021/03/23 01:41:28;;;;;;;;;;;;;;;;;;5069525;28;823;-62
2021/03/23 01:43:53;;;;;;;;;;;;;;;;;;5069658;28;914;-61
2021/03/23 01:46:33;;;;;;;;;;;;;;;;;;5069223;28;962;-62
2021/03/23 01:49:00;;;;;;;;;;;;;;;;;;5068955;28;1117;-62
2021/03/23 01:51:25;;;;;;;;;;;;;;;;;;5069562;28;914;-62
2021/03/23 01:53:54;;;;;;;;;;;;;;;;;;5059056;28;1137;-62
2021/03/23 01:56:20;;;;;;;;;;;;;;;;;;5048225;28;1988;-62
2021/03/23 01:58:48;;;;;;;;;;;;;;;;;;5048778;28;850;-62
2021/03/23 02:01:14;;;;;;;;;;;;;;;;;;5049336;28;922;-62
2021/03/23 02:03:40;;;;;;;;;;;;;;;;;;5049086;28;854;-61
2021/03/23 02:06:26;;;;;;;;;;;;;;;;;;5049965;28;846;-61
2021/03/23 02:08:53;;;;;;;;;;;;;;;;;;5049340;28;1230;-62
2021/03/23 02:11:19;;;;;;;;;;;;;;;;;;5048650;28;843;-62
2021/03/23 02:13:44;;;;;;;;;;;;;;;;;;5048688;28;846;-61
2021/03/23 02:16:09;;;;;;;;;;;;;;;;;;5049289;28;1972;-62
2021/03/23 02:18:35;;;;;;;;;;;;;;;;;;5049873;28;909;-62
2021/03/23 02:21:03;;;;;;;;;;;;;;;;;;5048748;28;909;-62
2021/03/23 02:23:39;;;;;;;;;;;;;;;;;;5048862;28;807;-62
2021/03/23 02:26:05;;;;;;;;;;;;;;;;;;5049544;28;871;-62
2021/03/23 02:28:38;;;;;;;;;;;;;;;;;;5047925;28;901;-62
2021/03/23 02:31:03;;;;;;;;;;;;;;;;;;5049252;28;909;-62
2021/03/23 02:33:28;;;;;;;;;;;;;;;;;;5051553;28;1157;-62
2021/03/23 02:35:54;;;;;;;;;;;;;;;;;;5048461;28;1969;-62
2021/03/23 02:38:19;;;;;;;;;;;;;;;;;;5048198;28;905;-62
2021/03/23 02:40:45;;;;;;;;;;;;;;;;;;5048073;28;862;-62
2021/03/23 02:43:11;;;;;;;;;;;;;;;;;;5047909;28;826;-62
2021/03/23 02:45:38;;;;;;;;;;;;;;;;;;5047020;28;840;-63
2021/03/23 02:48:03;;;;;;;;;;;;;;;;;;5048445;28;930;-62
2021/03/23 02:50:29;;;;;;;;;;;;;;;;;;5046859;28;1305;-62
2021/03/23 02:52:54;;;;;;;;;;;;;;;;;;5049823;28;1102;-62
2021/03/23 02:55:20;;;;;;;;;;;;;;;;;;5066255;28;1918;-61
2021/03/23 02:57:45;;;;;;;;;;;;;;;;;;5067662;28;829;-62
2021/03/23 03:00:13;;;;;;;;;;;;;;;;;;5067868;28;839;-62
2021/03/23 03:02:38;;;;;;;;;;;;;;;;;;5067738;28;870;-62
2021/03/23 03:05:05;;;;;;;;;;;;;;;;;;5068329;28;854;-62
2021/03/23 03:07:30;;;;;;;;;;;;;;;;;;5067721;28;891;-62
2021/03/23 03:09:55;;;;;;;;;;;;;;;;;;5066618;28;842;-62
2021/03/23 03:12:21;;;;;;;;;;;;;;;;;;5066066;28;1521;-63
2021/03/23 03:14:46;;;;;;;;;;;;;;;;;;5067673;28;1882;-62
2021/03/23 03:17:11;;;;;;;;;;;;;;;;;;5067664;28;874;-63
2021/03/23 03:19:37;;;;;;;;;;;;;;;;;;5067838;28;847;-62
2021/03/23 03:22:03;;;;;;;;;;;;;;;;;;5068145;28;906;-62
2021/03/23 03:24:28;;;;;;;;;;;;;;;;;;5067483;28;891;-62
2021/03/23 03:26:53;;;;;;;;;;;;;;;;;;5067028;28;873;-62
2021/03/23 03:29:19;;;;;;;;;;;;;;;;;;5067182;28;831;-63
2021/03/23 03:31:44;;;;;;;;;;;;;;;;;;5067889;28;933;-62
2021/03/23 03:34:09;;;;;;;;;;;;;;;;;;5067516;28;846;-62
2021/03/23 03:36:35;;;;;;;;;;;;;;;;;;5068465;28;1910;-62
2021/03/23 03:39:01;;;;;;;;;;;;;;;;;;5067124;28;1135;-63
2021/03/23 03:41:26;;;;;;;;;;;;;;;;;;5067017;28;1135;-63
2021/03/23 03:43:52;;;;;;;;;;;;;;;;;;5066681;28;1553;-63
2021/03/23 03:46:18;;;;;;;;;;;;;;;;;;5067278;28;791;-62
2021/03/23 03:48:43;;;;;;;;;;;;;;;;;;5067607;28;881;-62
2021/03/23 03:51:09;;;;;;;;;;;;;;;;;;5067254;28;937;-64
2021/03/23 03:53:34;;;;;;;;;;;;;;;;;;5059985;28;1077;-62
2021/03/23 03:55:59;;;;;;;;;;;;;;;;;;5047181;28;2019;-63
2021/03/23 03:58:25;;;;;;;;;;;;;;;;;;5047269;28;855;-62
2021/03/23 04:00:50;;;;;;;;;;;;;;;;;;5046943;28;838;-62
2021/03/23 04:03:20;;;;;;;;;;;;;;;;;;5046643;28;886;-62
2021/03/23 04:05:47;;;;;;;;;;;;;;;;;;5045689;28;1177;-62
2021/03/23 04:08:14;;;;;;;;;;;;;;;;;;5046654;28;823;-61
2021/03/23 04:10:40;;;;;;;;;;;;;;;;;;5040424;28;2630;-63
2021/03/23 04:13:05;;;;;;;;;;;;;;;;;;5040280;28;887;-62
2021/03/23 04:15:33;;;;;;;;;;;;;;;;;;5046674;28;1886;-62
2021/03/23 04:17:58;;;;;;;;;;;;;;;;;;5046988;28;803;-63
2021/03/23 04:20:24;;;;;;;;;;;;;;;;;;5046827;28;1174;-62
2021/03/23 04:22:50;;;;;;;;;;;;;;;;;;5031332;28;1163;-61
2021/03/23 04:25:18;;;;;;;;;;;;;;;;;;5029708;28;828;-61
2021/03/23 04:27:43;;;;;;;;;;;;;;;;;;5030306;28;831;-61
2021/03/23 04:30:09;;;;;;;;;;;;;;;;;;5037229;28;1012;-62
2021/03/23 04:32:35;;;;;;;;;;;;;;;;;;5030858;28;941;-61
2021/03/23 04:35:01;;;;;;;;;;;;;;;;;;5030001;28;1995;-61
2021/03/23 04:37:27;;;;;;;;;;;;;;;;;;5030425;28;800;-62
2021/03/23 04:39:52;;;;;;;;;;;;;;;;;;5030295;28;910;-62
2021/03/23 04:42:17;;;;;;;;;;;;;;;;;;5030726;28;804;-62
2021/03/23 04:44:43;;;;;;;;;;;;;;;;;;5030423;28;939;-62
2021/03/23 04:47:08;;;;;;;;;;;;;;;;;;5037161;28;2616;-63
2021/03/23 04:49:33;;;;;;;;;;;;;;;;;;5050617;28;910;-62
2021/03/23 04:51:59;;;;;;;;;;;;;;;;;;5049572;28;898;-61
2021/03/23 04:54:24;;;;;;;;;;;;;;;;;;5064003;28;1039;-61
2021/03/23 04:56:50;;;;;;;;;;;;;;;;;;5069513;28;1902;-61
2021/03/23 04:59:15;;;;;;;;;;;;;;;;;;5069646;28;890;-62
2021/03/23 05:01:41;;;;;;;;;;;;;;;;;;5069662;28;926;-62
2021/03/23 05:04:10;;;;;;;;;;;;;;;;;;5071006;28;866;-61
2021/03/23 05:06:35;;;;;;;;;;;;;;;;;;5070483;28;892;-61
2021/03/23 05:09:01;;;;;;;;;;;;;;;;;;5068796;28;913;-61
2021/03/23 05:11:31;;;;;;;;;;;;;;;;;;5070082;28;954;-62
2021/03/23 05:13:57;;;;;;;;;;;;;;;;;;5069890;28;870;-61
2021/03/23 05:16:22;;;;;;;;;;;;;;;;;;5069574;28;1870;-61
2021/03/23 05:18:48;;;;;;;;;;;;;;;;;;5069829;28;850;-61
2021/03/23 05:21:13;;;;;;;;;;;;;;;;;;5070153;28;902;-61
2021/03/23 05:23:39;;;;;;;;;;;;;;;;;;5068010;28;970;-63
2021/03/23 05:26:05;;;;;;;;;;;;;;;;;;5070586;28;874;-61
2021/03/23 05:28:30;;;;;;;;;;;;;;;;;;5069840;28;835;-61
2021/03/23 05:30:56;;;;;;;;;;;;;;;;;;5069007;28;882;-61
2021/03/23 05:33:23;;;;;;;;;;;;;;;;;;5068968;28;843;-61
2021/03/23 05:35:49;;;;;;;;;;;;;;;;;;5068267;28;1965;-61
2021/03/23 05:38:14;;;;;;;;;;;;;;;;;;5068672;28;910;-62
2021/03/23 05:40:42;;;;;;;;;;;;;;;;;;5068967;28;936;-62
2021/03/23 05:43:25;;;;;;;;;;;;;;;;;;5069716;28;969;-61
2021/03/23 05:45:57;;;;;;;;;;;;;;;;;;5069647;28;830;-61
2021/03/23 05:48:24;;;;;;;;;;;;;;;;;;5069379;28;819;-61
2021/03/23 05:51:11;;;;;;;;;;;;;;;;;;5069154;28;905;-62
2021/03/23 05:53:50;;;;;;;;;;;;;;;;;;5061773;28;1038;-62
2021/03/23 05:56:15;;;;;;;;;;;;;;;;;;5048805;28;1902;-61
2021/03/23 05:58:45;;;;;;;;;;;;;;;;;;5048579;28;891;-62
2021/03/23 06:01:11;;;;;;;;;;;;;;;;;;5049065;28;850;-62
2021/03/23 06:03:39;;;;;;;;;;;;;;;;;;5049428;28;855;-61
2021/03/23 06:06:04;;;;;;;;;;;;;;;;;;5049077;28;854;-61
2021/03/23 06:08:34;;;;;;;;;;;;;;;;;;5049065;28;843;-62
2021/03/23 06:11:05;;;;;;;;;;;;;;;;;;5049092;28;807;-61
2021/03/23 06:13:44;;;;;;;;;;;;;;;;;;5048099;28;909;-61
2021/03/23 06:16:28;;;;;;;;;;;;;;;;;;5041780;28;1886;-62
2021/03/23 06:19:00;;;;;;;;;;;;;;;;;;5045394;28;902;-61
2021/03/23 06:21:47;;;;;;;;;;;;;;;;;;5064718;28;1207;-62
2021/03/23 06:24:26;;;;;;;;;;;;;;;;;;5068514;28;906;-61
2021/03/23 06:26:57;;;;;;;;;;;;;;;;;;5068864;28;835;-61
2021/03/23 06:29:23;;;;;;;;;;;;;;;;;;5068507;28;882;-61
2021/03/23 06:31:54;;;;;;;;;;;;;;;;;;5059724;28;1140;-61
2021/03/23 06:34:21;;;;;;;;;;;;;;;;;;5048737;28;878;-61
2021/03/23 06:36:48;;;;;;;;;;;;;;;;;;5048017;28;1984;-61
2021/03/23 06:39:14;;;;;;;;;;;;;;;;;;5048106;28;874;-61
2021/03/23 06:41:54;;;;;;;;;;;;;;;;;;5047868;28;815;-61
2021/03/23 06:44:25;;;;;;;;;;;;;;;;;;5052692;28;1219;-62
2021/03/23 06:46:52;;;;;;;;;;;;;;;;;;5067809;28;862;-61
2021/03/23 06:49:30;;;;;;;;;;;;;;;;;;5067101;28;968;-61
2021/03/23 06:52:01;;;;;;;;;;;;;;;;;;5068416;28;933;-61
2021/03/23 06:54:30;;;;;;;;;;;;;;;;;;5067413;28;1078;-61
2021/03/23 06:57:15;;;;;;;;;;;;;;;;;;5066102;28;1893;-61
2021/03/23 06:59:57;;;;;;;;;;;;;;;;;;5068096;28;828;-62
2021/03/23 07:02:49;;;;;;;;;;;;;;;;;;5062307;28;1150;-61
2021/03/23 07:05:17;;;;;;;;;;;;;;;;;;5049025;28;1139;-62
2021/03/23 07:08:10;;;;;;;;;;;;;;;;;;5049391;28;1166;-62
2021/03/23 07:10:41;;;;;;;;;;;;;;;;;;5052722;28;1187;-62
2021/03/23 07:13:27;;;;;;;;;;;;;;;;;;5048044;28;1108;-62
2021/03/23 07:16:15;;;;;;;;;;;;;;;;;;5057579;28;1996;-62
2021/03/23 07:18:46;;;;;;;;;;;;;;;;;;5048351;28;1304;-63
2021/03/23 07:21:14;;;;;;;;;;;;;;;;;;5050097;28;1189;-62
2021/03/23 07:23:43;;;;;;;;;;;;;;;;;;5056431;28;1234;-62
2021/03/23 07:26:18;;;;;;;;;;;;;;;;;;5053303;28;1218;-62
2021/03/23 07:28:43;;;;;;;;;;;;;;;;;;5045883;28;1421;-62
2021/03/23 07:31:12;;;;;;;;;;;;;;;;;;5047009;28;854;-61
2021/03/23 07:33:48;;;;;;;;;;;;;;;;;;5046192;28;973;-62
2021/03/23 07:36:20;;;;;;;;;;;;;;;;;;5046942;28;1975;-61
2021/03/23 07:38:45;;;;;;;;;;;;;;;;;;5049279;28;1234;-62
2021/03/23 07:41:32;;;;;;;;;;;;;;;;;;5060530;28;1098;-61
2021/03/23 07:44:00;;;;;;;;;;;;;;;;;;5066814;28;906;-61
2021/03/23 07:46:42;;;;;;;;;;;;;;;;;;5066740;28;826;-62
2021/03/23 07:49:20;;;;;;;;;;;;;;;;;;5053536;28;1238;-61
2021/03/23 07:51:53;;;;;;;;;;;;;;;;;;5046798;28;827;-62
2021/03/23 07:54:35;;;;;;;;;;;;;;;;;;5059259;28;1079;-61
2021/03/23 07:57:08;;;;;;;;;;;;;;;;;;5046704;28;1902;-62
2021/03/23 07:59:52;;;;;;;;;;;;;;;;;;5047770;28;902;-62
2021/03/23 08:02:37;;;;;;;;;;;;;;;;;;5046129;28;882;-62
2021/03/23 08:05:25;;;;;;;;;;;;;;;;;;5055103;28;1211;-62
2021/03/23 08:07:50;;;;;;;;;;;;;;;;;;5052023;28;1229;-61
2021/03/23 08:10:16;;;;;;;;;;;;;;;;;;5054202;28;1214;-61
2021/03/23 08:12:59;;;;;;;;;;;;;;;;;;5066512;28;870;-61
2021/03/23 08:15:29;;;;;;;;;;;;;;;;;;5066810;28;1889;-62
2021/03/23 08:18:09;;;;;;;;;;;;;;;;;;5066217;28;855;-62
2021/03/23 08:20:55;;;;;;;;;;;;;;;;;;5066419;28;847;-62
2021/03/23 08:23:45;;;;;;;;;;;;;;;;;;5055781;28;1237;-62
2021/03/23 08:26:33;;;;;;;;;;;;;;;;;;5066784;28;874;-63
2021/03/23 08:29:12;;;;;;;;;;;;;;;;;;5066651;28;1274;-62
2021/03/23 08:31:55;;;;;;;;;;;;;;;;;;5061478;28;1231;-60
2021/03/23 08:34:39;;;;;;;;;;;;;;;;;;5046527;28;832;-65
2021/03/23 08:37:19;;;;;;;;;;;;;;;;;;5047366;28;1890;-62
2021/03/23 08:39:53;;;;;;;;;;;;;;;;;;5047033;28;970;-63
2021/03/23 08:42:20;;;;;;;;;;;;;;;;;;5046941;28;851;-62
2021/03/23 08:44:52;;;;;;;;;;;;;;;;;;5046418;28;866;-62
2021/03/23 08:47:26;;;;;;;;;;;;;;;;;;5046411;28;906;-62
2021/03/23 08:49:53;;;;;;;;;;;;;;;;;;5046843;28;859;-62
2021/03/23 08:52:33;;;;;;;;;;;;;;;;;;5046175;28;819;-65
2021/03/23 08:54:59;;;;;;;;;;;;;;;;;;5059107;28;1910;-62
2021/03/23 08:57:44;;;;;;;;;;;;;;;;;;5065175;28;1249;-62
2021/03/23 09:00:29;;;;;;;;;;;;;;;;;;5065263;28;1390;-63
2021/03/23 09:02:55;;;;;;;;;;;;;;;;;;5046240;28;1196;-62
2021/03/23 09:05:27;;;;;;;;;;;;;;;;;;5065468;28;1366;-63
2021/03/23 09:08:12;;;;;;;;;;;;;;;;;;5068544;28;827;-62
2021/03/23 09:10:47;;;;;;;;;;;;;;;;;;5069722;28;1514;-63
2021/03/23 09:13:43;;;;;;;;;;;;;;;;;;5042036;28;1381;-64
2021/03/23 09:16:11;;;;;;;;;;;;;;;;;;5031659;28;1981;-69
2021/03/23 09:18:57;;;;;;;;;;;;;;;;;;5050286;28;894;-66
2021/03/23 09:21:22;;;;;;;;;;;;;;;;;;5043978;28;1914;-66
2021/03/23 09:23:51;;;;;;;;;;;;;;;;;;5035192;28;1180;-67
2021/03/23 09:26:35;;;;;;;;;;;;;;;;;;5058652;28;1123;-67
2021/03/23 09:29:19;;;;;;;;;;;;;;;;;;5054627;28;1234;-68
2021/03/23 09:31:57;;;;;;;;;;;;;;;;;;5054658;28;1147;-68
2021/03/23 09:34:41;;;;;;;;;;;;;;;;;;5061503;28;1241;-68
2021/03/23 09:37:36;;;;;;;;;;;;;;;;;;5054297;28;1882;-67
2021/03/23 09:40:24;;;;;;;;;;;;;;;;;;5047577;28;1755;-67
2021/03/23 09:42:53;;;;;;;;;;;;;;;;;;5057828;28;1354;-66
2021/03/23 09:45:34;;;;;;;;;;;;;;;;;;5058179;28;1285;-66
2021/03/23 09:48:02;;;;;;;;;;;;;;;;;;5059782;28;1250;-69
2021/03/23 09:50:34;;;;;;;;;;;;;;;;;;5056947;28;1119;-65
2021/03/23 09:53:01;;;;;;;;;;;;;;;;;;5060216;28;1187;-67
2021/03/23 09:55:27;;;;;;;;;;;;;;;;;;5062938;28;1905;-67
2021/03/23 09:57:55;;;;;;;;;;;;;;;;;;5059986;28;1226;-69
2021/03/23 10:00:24;;;;;;;;;;;;;;;;;;5049169;28;928;-66
2021/03/23 10:02:50;;;;;;;;;;;;;;;;;;5051769;28;1167;-65
2021/03/23 10:05:18;;;;;;;;;;;;;;;;;;5053805;28;1175;-65
2021/03/23 10:07:45;;;;;;;;;;;;;;;;;;5048539;28;877;-66
2021/03/23 10:10:11;;;;;;;;;;;;;;;;;;5048691;28;824;-67
2021/03/23 10:12:37;;;;;;;;;;;;;;;;;;5044031;28;807;-67
2021/03/23 10:15:21;;;;;;;;;;;;;;;;;;5028759;28;1897;-69
2021/03/23 10:17:46;;;;;;;;;;;;;;;;;;5028061;28;871;-66
2021/03/23 10:20:13;;;;;;;;;;;;;;;;;;5028957;28;898;-66
2021/03/23 10:22:40;;;;;;;;;;;;;;;;;;5029197;28;827;-68
2021/03/23 10:25:12;;;;;;;;;;;;;;;;;;5028450;28;855;-66
2021/03/23 10:27:37;;;;;;;;;;;;;;;;;;5040423;28;1059;-66
2021/03/23 10:30:06;;;;;;;;;;;;;;;;;;5049315;28;788;-65
2021/03/23 10:32:34;;;;;;;;;;;;;;;;;;5047950;28;863;-66
2021/03/23 10:35:00;;;;;;;;;;;;;;;;;;5048391;28;1894;-66
2021/03/23 10:37:25;;;;;;;;;;;;;;;;;;5049006;28;1067;-66
2021/03/23 10:39:51;;;;;;;;;;;;;;;;;;5048215;28;827;-66
2021/03/23 10:42:27;;;;;;;;;;;;;;;;;;5047822;28;811;-66
2021/03/23 10:45:09;;;;;;;;;;;;;;;;;;5047942;28;1143;-67
2021/03/23 10:47:38;;;;;;;;;;;;;;;;;;5048279;28;854;-66
2021/03/23 10:50:15;;;;;;;;;;;;;;;;;;5052574;28;1222;-67
2021/03/23 10:52:41;;;;;;;;;;;;;;;;;;5042421;28;1216;-68
2021/03/23 10:55:35;;;;;;;;;;;;;;;;;;5039331;28;1981;-68
2021/03/23 10:58:14;;;;;;;;;;;;;;;;;;5034214;28;1419;-68
2021/03/23 11:00:40;;;;;;;;;;;;;;;;;;5037827;28;1248;-68
2021/03/23 11:03:27;;;;;;;;;;;;;;;;;;5035087;28;1129;-68
2021/03/23 11:05:53;;;;;;;;;;;;;;;;;;5048910;28;1591;-68
2021/03/23 11:08:18;;;;;;;;;;;;;;;;;;5035924;28;1663;-68
2021/03/23 11:10:45;;;;;;;;;;;;;;;;;;5038931;28;1488;-68
2021/03/23 11:13:11;;;;;;;;;;;;;;;;;;5027342;28;663;-69
2021/03/23 11:15:42;;;;;;;;;;;;;;;;;;5033274;28;1898;-68
2021/03/23 11:18:13;;;;;;;;;;;;;;;;;;5036548;28;1164;-67
2021/03/23 11:20:39;;;;;;;;;;;;;;;;;;5059241;28;1184;-69
2021/03/23 11:23:25;;;;;;;;;;;;;;;;;;5063684;28;1539;-69
2021/03/23 11:25:51;;;;;;;;;;;;;;;;;;5047320;28;850;-69
2021/03/23 11:28:17;;;;;;;;;;;;;;;;;;5047026;28;847;-70
2021/03/23 11:30:42;;;;;;;;;;;;;;;;;;5044646;28;823;-69
2021/03/23 11:33:09;;;;;;;;;;;;;;;;;;5046920;28;874;-70
2021/03/23 11:35:34;;;;;;;;;;;;;;;;;;5047639;28;1965;-70
2021/03/23 11:38:01;;;;;;;;;;;;;;;;;;5047011;28;961;-70
2021/03/23 11:40:26;;;;;;;;;;;;;;;;;;5041185;28;1619;-69
2021/03/23 11:42:52;;;;;;;;;;;;;;;;;;5027358;28;901;-68
2021/03/23 11:45:21;;;;;;;;;;;;;;;;;;5027307;28;803;-69
2021/03/23 11:47:55;;;;;;;;;;;;;;;;;;5026800;28;890;-69
2021/03/23 11:50:22;;;;;;;;;;;;;;;;;;5033936;28;1052;-69
2021/03/23 11:52:48;;;;;;;;;;;;;;;;;;5051373;28;1293;-69
2021/03/23 11:55:19;;;;;;;;;;;;;;;;;;5065745;28;1905;-68
2021/03/23 11:57:45;;;;;;;;;;;;;;;;;;5059491;28;1401;-69
2021/03/23 12:00:13;;;;;;;;;;;;;;;;;;5067787;28;885;-69
2021/03/23 12:02:39;;;;;;;;;;;;;;;;;;5066144;28;1162;-69
2021/03/23 12:05:05;;;;;;;;;;;;;;;;;;5058165;28;1226;-68
2021/03/23 12:07:42;;;;;;;;;;;;;;;;;;5055584;28;1357;-68
2021/03/23 12:10:14;;;;;;;;;;;;;;;;;;5064417;28;1171;-68
2021/03/23 12:13:08;;;;;;;;;;;;;;;;;;5043514;28;1183;-68
2021/03/23 12:15:39;;;;;;;;;;;;;;;;;;5030792;28;1980;-68
2021/03/23 12:18:08;;;;;;;;;;;;;;;;;;5042449;28;1240;-68
2021/03/23 12:20:36;;;;;;;;;;;;;;;;;;5040607;28;1089;-68
2021/03/23 12:23:01;;;;;;;;;;;;;;;;;;5055019;28;1200;-68
2021/03/23 12:25:27;;;;;;;;;;;;;;;;;;5049429;28;1014;-68
2021/03/23 12:27:52;;;;;;;;;;;;;;;;;;5053004;28;1166;-68
2021/03/23 12:30:19;;;;;;;;;;;;;;;;;;5061162;28;1159;-68
2021/03/23 12:32:44;;;;;;;;;;;;;;;;;;5065021;28;1066;-68
2021/03/23 12:35:14;;;;;;;;;;;;;;;;;;5058714;28;1990;-68
2021/03/23 12:37:41;;;;;;;;;;;;;;;;;;5046769;28;1062;-68
2021/03/23 12:40:07;;;;;;;;;;;;;;;;;;5051099;28;1216;-68
2021/03/23 12:42:33;;;;;;;;;;;;;;;;;;5066824;28;1165;-68
2021/03/23 12:44:58;;;;;;;;;;;;;;;;;;5068977;28;1086;-69
2021/03/23 12:47:24;;;;;;;;;;;;;;;;;;5050182;28;881;-68
2021/03/23 12:49:49;;;;;;;;;;;;;;;;;;5061610;28;1236;-68
2021/03/23 12:52:16;;;;;;;;;;;;;;;;;;5062824;28;1217;-68
2021/03/23 12:54:45;;;;;;;;;;;;;;;;;;5056469;28;1015;-68
2021/03/23 12:57:17;;;;;;;;;;;;;;;;;;5053080;28;1898;-69
2021/03/23 12:59:43;;;;;;;;;;;;;;;;;;5064320;28;1181;-68
2021/03/23 13:02:10;;;;;;;;;;;;;;;;;;5065587;28;1177;-69
2021/03/23 13:04:35;;;;;;;;;;;;;;;;;;5063413;28;1097;-68
2021/03/23 13:07:01;;;;;;;;;;;;;;;;;;5050668;28;818;-68
2021/03/23 13:09:31;;;;;;;;;;;;;;;;;;5050145;28;889;-69
2021/03/23 13:11:57;;;;;;;;;;;;;;;;;;5050214;28;827;-69
2021/03/23 13:14:23;;;;;;;;;;;;;;;;;;5046926;28;1717;-69
2021/03/23 13:16:49;;;;;;;;;;;;;;;;;;5049290;28;2229;-68
2021/03/23 13:19:15;;;;;;;;;;;;;;;;;;5049108;28;1635;-69
2021/03/23 13:21:44;;;;;;;;;;;;;;;;;;5035688;28;1792;-69
2021/03/23 13:24:25;;;;;;;;;;;;;;;;;;5045982;28;1012;-70
2021/03/23 13:26:50;;;;;;;;;;;;;;;;;;5048567;28;1256;-71
2021/03/23 13:29:16;;;;;;;;;;;;;;;;;;5048220;28;1108;-65
2021/03/23 13:31:43;;;;;;;;;;;;;;;;;;5049152;28;1165;-68
2021/03/23 13:34:21;;;;;;;;;;;;;;;;;;5048771;28;1410;-71
2021/03/23 13:36:48;;;;;;;;;;;;;;;;;;5049233;28;1966;-67
2021/03/23 13:39:16;;;;;;;;;;;;;;;;;;5049988;28;1094;-68
2021/03/23 13:41:41;;;;;;;;;;;;;;;;;;5049372;28;906;-66
2021/03/23 13:44:18;;;;;;;;;;;;;;;;;;5049792;28;882;-67
2021/03/23 13:46:43;;;;;;;;;;;;;;;;;;5049050;28;961;-65
2021/03/23 13:49:09;;;;;;;;;;;;;;;;;;5050397;28;811;-68
2021/03/23 13:51:34;;;;;;;;;;;;;;;;;;5050116;28;843;-66
2021/03/23 13:54:02;;;;;;;;;;;;;;;;;;5059185;28;1194;-65
2021/03/23 13:56:28;;;;;;;;;;;;;;;;;;5068745;28;1901;-65
2021/03/23 13:58:54;;;;;;;;;;;;;;;;;;5069334;28;862;-70
2021/03/23 14:01:19;;;;;;;;;;;;;;;;;;5054630;28;1438;-72
2021/03/23 14:03:46;;;;;;;;;;;;;;;;;;5049359;28;1210;-67
2021/03/23 14:06:20;;;;;;;;;;;;;;;;;;5049625;28;773;-69
2021/03/23 14:08:50;;;;;;;;;;;;;;;;;;5048683;28;831;-70
2021/03/23 14:11:26;;;;;;;;;;;;;;;;;;5048613;28;855;-68
2021/03/23 14:13:55;;;;;;;;;;;;;;;;;;5049554;28;913;-69
2021/03/23 14:16:23;;;;;;;;;;;;;;;;;;5048532;28;1913;-66
2021/03/23 14:18:48;;;;;;;;;;;;;;;;;;5051056;28;1205;-71
2021/03/23 14:21:18;;;;;;;;;;;;;;;;;;5048651;28;894;-71
2021/03/23 14:23:46;;;;;;;;;;;;;;;;;;5048029;28;955;-72
2021/03/23 14:26:12;;;;;;;;;;;;;;;;;;5043905;28;1329;-71
2021/03/23 14:28:39;;;;;;;;;;;;;;;;;;5033049;28;1855;-71
2021/03/23 14:31:06;;;;;;;;;;;;;;;;;;5059100;28;1552;-71
2021/03/23 14:33:32;;;;;;;;;;;;;;;;;;5045976;28;1415;-71
2021/03/23 14:35:58;;;;;;;;;;;;;;;;;;5047258;28;1886;-71
2021/03/23 14:38:26;;;;;;;;;;;;;;;;;;5048230;28;839;-71
2021/03/23 14:40:52;;;;;;;;;;;;;;;;;;5046796;28;1298;-70
2021/03/23 14:43:18;;;;;;;;;;;;;;;;;;5047528;28;950;-72
2021/03/23 14:45:43;;;;;;;;;;;;;;;;;;5047747;28;902;-71
2021/03/23 14:48:13;;;;;;;;;;;;;;;;;;5038600;28;820;-69
2021/03/23 14:50:39;;;;;;;;;;;;;;;;;;5028966;28;894;-67
2021/03/23 14:53:05;;;;;;;;;;;;;;;;;;5035993;28;1158;-71
2021/03/23 14:55:30;;;;;;;;;;;;;;;;;;5068021;28;1962;-71
2021/03/23 14:57:57;;;;;;;;;;;;;;;;;;5064690;28;1296;-70
2021/03/23 15:00:27;;;;;;;;;;;;;;;;;;5047274;28;1369;-72
2021/03/23 15:02:54;;;;;;;;;;;;;;;;;;5040876;28;831;-72
2021/03/23 15:05:21;;;;;;;;;;;;;;;;;;5037321;28;1598;-72
2021/03/23 15:07:47;;;;;;;;;;;;;;;;;;5043317;28;1369;-71
2021/03/23 15:10:18;;;;;;;;;;;;;;;;;;5048016;28;886;-71
2021/03/23 15:12:44;;;;;;;;;;;;;;;;;;5048132;28;843;-70
2021/03/23 15:15:10;;;;;;;;;;;;;;;;;;5048004;28;1968;-68
2021/03/23 15:17:35;;;;;;;;;;;;;;;;;;5047983;28;898;-67
2021/03/23 15:20:01;;;;;;;;;;;;;;;;;;5046113;28;1886;-67
2021/03/23 15:22:27;;;;;;;;;;;;;;;;;;5036181;28;2089;-65
2021/03/23 15:24:59;;;;;;;;;;;;;;;;;;5035792;28;1604;-65
2021/03/23 15:27:27;;;;;;;;;;;;;;;;;;5044696;28;1467;-65
2021/03/23 15:29:53;;;;;;;;;;;;;;;;;;5045812;28;1403;-65
2021/03/23 15:32:18;;;;;;;;;;;;;;;;;;5029228;28;1619;-65
2021/03/23 15:34:43;;;;;;;;;;;;;;;;;;5027086;28;1349;-65
2021/03/23 15:37:17;;;;;;;;;;;;;;;;;;5047901;28;1966;-66
2021/03/23 15:39:42;;;;;;;;;;;;;;;;;;5046771;28;1698;-65
2021/03/23 15:42:10;;;;;;;;;;;;;;;;;;5047063;28;870;-65
2021/03/23 15:44:37;;;;;;;;;;;;;;;;;;5047305;28;835;-64
2021/03/23 15:47:02;;;;;;;;;;;;;;;;;;5045969;28;940;-65
2021/03/23 15:49:28;;;;;;;;;;;;;;;;;;5064868;28;1199;-65
2021/03/23 15:51:55;;;;;;;;;;;;;;;;;;5027028;28;1321;-65
2021/03/23 15:54:20;;;;;;;;;;;;;;;;;;5043610;28;2609;-67
2021/03/23 15:56:46;;;;;;;;;;;;;;;;;;5026506;28;1991;-68
2021/03/23 15:59:16;;;;;;;;;;;;;;;;;;5040793;28;1241;-67
2021/03/23 16:01:41;;;;;;;;;;;;;;;;;;5047133;28;811;-66
2021/03/23 16:04:06;;;;;;;;;;;;;;;;;;5047625;28;878;-67
2021/03/23 16:06:32;;;;;;;;;;;;;;;;;;5064368;28;1136;-68
2021/03/23 16:09:00;;;;;;;;;;;;;;;;;;5065689;28;1415;-67
2021/03/23 16:11:27;;;;;;;;;;;;;;;;;;5067152;28;823;-67
2021/03/23 16:13:53;;;;;;;;;;;;;;;;;;5065439;28;880;-67
2021/03/23 16:16:18;;;;;;;;;;;;;;;;;;5064881;28;2526;-66
2021/03/23 16:18:45;;;;;;;;;;;;;;;;;;5040343;28;847;-67
2021/03/23 16:21:17;;;;;;;;;;;;;;;;;;5051684;28;875;-68
2021/03/23 16:23:43;;;;;;;;;;;;;;;;;;5051068;28;859;-67
2021/03/23 16:26:10;;;;;;;;;;;;;;;;;;5054219;28;1200;-66
2021/03/23 16:28:38;;;;;;;;;;;;;;;;;;5052002;28;973;-67
2021/03/23 16:31:04;;;;;;;;;;;;;;;;;;5041516;28;1556;-67
2021/03/23 16:33:30;;;;;;;;;;;;;;;;;;5030756;28;831;-67
2021/03/23 16:35:55;;;;;;;;;;;;;;;;;;5033615;28;1991;-66
2021/03/23 16:38:22;;;;;;;;;;;;;;;;;;5050305;28;843;-67
2021/03/23 16:40:47;;;;;;;;;;;;;;;;;;5050484;28;871;-67
2021/03/23 16:43:15;;;;;;;;;;;;;;;;;;5050897;28;848;-66
2021/03/23 16:45:40;;;;;;;;;;;;;;;;;;5050516;28;855;-66
2021/03/23 16:48:06;;;;;;;;;;;;;;;;;;5051801;28;835;-66
2021/03/23 16:50:32;;;;;;;;;;;;;;;;;;5050551;28;870;-67
2021/03/23 16:52:58;;;;;;;;;;;;;;;;;;5051168;28;1549;-59
2021/03/23 16:55:23;;;;;;;;;;;;;;;;;;5044763;28;1975;-65
2021/03/23 16:57:49;;;;;;;;;;;;;;;;;;5053936;28;1227;-66
2021/03/23 17:00:19;;;;;;;;;;;;;;;;;;5052413;28;1155;-65
2021/03/23 17:02:44;;;;;;;;;;;;;;;;;;5059065;28;1075;-65
2021/03/23 17:05:10;;;;;;;;;;;;;;;;;;5063843;28;1145;-65
2021/03/23 17:07:35;;;;;;;;;;;;;;;;;;5058284;28;1740;-66
2021/03/23 17:10:01;;;;;;;;;;;;;;;;;;5059323;28;1147;-67
2021/03/23 17:12:26;;;;;;;;;;;;;;;;;;5055173;28;1150;-66
2021/03/23 17:14:51;;;;;;;;;;;;;;;;;;5049695;28;1100;-66
2021/03/23 17:17:17;;;;;;;;;;;;;;;;;;5050216;28;1882;-67
2021/03/23 17:19:42;;;;;;;;;;;;;;;;;;5063402;28;1163;-67
2021/03/23 17:22:07;;;;;;;;;;;;;;;;;;5066199;28;1094;-67
2021/03/23 17:24:33;;;;;;;;;;;;;;;;;;5058545;28;1214;-67
2021/03/23 17:26:58;;;;;;;;;;;;;;;;;;5063216;28;1147;-66